Terminal Aerodrome Forecast
Issued by NWS San Angelo, TX

Home | Current Version | Previous Version | Text Only | Print | Product List | Glossary On
Versions: 1 2 3 4 5 6 7 8 9 10 11 12 13 14 15 16 17 18 19
000
FTUS44 KSJT 291144
TAFABI
TAF
KABI 291144Z 2912/3012 13012KT P6SM BKN250
     FM291500 16012G18KT P6SM SCT050 BKN250
     FM300000 15011KT P6SM VCTS BKN050CB
     FM300200 15010KT 5SM -TSRA BKN035CB
     FM300400 15008KT P6SM VCSH BKN040=

USA.gov is the U.S. government's official web portal to all federal, state and local government web resources and services.